sensor_id;sensor_type;location;lat;lon;timestamp;pressure;altitude;pressure_sealevel;temperature;humidity
76815;BME280;65768;49.906;19.384;2024-01-06T20:58:56;97514.39;;;0.60;100.00
76815;BME280;65768;49.906;19.384;2024-01-06T21:01:24;97514.20;;;1.36;100.00
76815;BME280;65768;49.906;19.384;2024-01-06T21:03:51;97517.17;;;1.59;100.00
76815;BME280;65768;49.906;19.384;2024-01-06T21:06:20;97513.86;;;1.71;100.00
76815;BME280;65768;49.906;19.384;2024-01-06T21:08:48;97510.89;;;1.77;100.00
76815;BME280;65768;49.906;19.384;2024-01-06T21:11:15;97517.58;;;1.40;100.00
76815;BME280;65768;49.906;19.384;2024-01-06T21:13:42;97516.83;;;1.52;100.00
76815;BME280;65768;49.906;19.384;2024-01-06T21:16:10;97517.96;;;1.56;100.00
76815;BME280;65768;49.906;19.384;2024-01-06T21:18:37;97516.41;;;1.63;100.00
76815;BME280;65768;49.906;19.384;2024-01-06T21:21:04;97515.19;;;1.41;100.00
76815;BME280;65768;49.906;19.384;2024-01-06T21:23:31;97517.89;;;1.53;100.00
76815;BME280;65768;49.906;19.384;2024-01-06T21:25:59;97519.02;;;1.50;100.00
76815;BME280;65768;49.906;19.384;2024-01-06T21:28:28;97520.00;;;1.48;100.00
76815;BME280;65768;49.906;19.384;2024-01-06T21:30:55;97526.33;;;1.54;100.00
76815;BME280;65768;49.906;19.384;2024-01-06T21:33:23;97521.70;;;1.48;100.00
76815;BME280;65768;49.906;19.384;2024-01-06T21:35:50;97525.68;;;1.56;100.00
76815;BME280;65768;49.906;19.384;2024-01-06T21:38:18;97528.23;;;1.69;100.00
76815;BME280;65768;49.906;19.384;2024-01-06T21:40:46;97528.47;;;1.64;100.00
76815;BME280;65768;49.906;19.384;2024-01-06T21:43:13;97520.45;;;1.67;100.00
76815;BME280;65768;49.906;19.384;2024-01-06T21:45:40;97525.02;;;1.64;100.00
76815;BME280;65768;49.906;19.384;2024-01-06T21:48:08;97526.55;;;1.77;100.00
76815;BME280;65768;49.906;19.384;2024-01-06T21:50:35;97530.07;;;1.67;100.00
76815;BME280;65768;49.906;19.384;2024-01-06T21:53:03;97531.90;;;1.43;100.00
76815;BME280;65768;49.906;19.384;2024-01-06T21:55:31;97531.26;;;1.59;100.00
76815;BME280;65768;49.906;19.384;2024-01-06T21:57:58;97536.67;;;1.56;100.00
76815;BME280;65768;49.906;19.384;2024-01-06T22:00:28;97539.08;;;1.49;100.00
76815;BME280;65768;49.906;19.384;2024-01-06T22:02:55;97538.14;;;1.60;100.00
76815;BME280;65768;49.906;19.384;2024-01-06T22:05:22;97535.27;;;1.40;100.00
76815;BME280;65768;49.906;19.384;2024-01-06T22:07:49;97536.16;;;1.28;100.00
76815;BME280;65768;49.906;19.384;2024-01-06T22:10:17;97535.23;;;1.05;100.00
76815;BME280;65768;49.906;19.384;2024-01-06T22:12:44;97535.25;;;1.19;100.00
76815;BME280;65768;49.906;19.384;2024-01-06T22:15:13;97540.06;;;1.27;100.00
76815;BME280;65768;49.906;19.384;2024-01-06T22:17:42;97541.59;;;1.06;100.00
76815;BME280;65768;49.906;19.384;2024-01-06T22:20:10;97541.09;;;0.82;100.00
76815;BME280;65768;49.906;19.384;2024-01-06T22:22:37;97544.77;;;0.84;100.00
76815;BME280;65768;49.906;19.384;2024-01-06T22:25:06;97540.39;;;0.81;100.00
76815;BME280;65768;49.906;19.384;2024-01-06T22:27:34;97537.66;;;0.75;100.00
76815;BME280;65768;49.906;19.384;2024-01-06T22:30:02;97540.33;;;0.79;100.00
76815;BME280;65768;49.906;19.384;2024-01-06T22:32:31;97543.40;;;0.85;100.00
76815;BME280;65768;49.906;19.384;2024-01-06T22:34:59;97542.80;;;0.74;100.00
76815;BME280;65768;49.906;19.384;2024-01-06T22:37:26;97536.98;;;0.94;100.00
76815;BME280;65768;49.906;19.384;2024-01-06T22:39:53;97537.09;;;0.67;100.00
76815;BME280;65768;49.906;19.384;2024-01-06T22:42:21;97533.58;;;0.76;100.00
76815;BME280;65768;49.906;19.384;2024-01-06T22:44:48;97543.94;;;0.72;100.00
76815;BME280;65768;49.906;19.384;2024-01-06T22:47:16;97543.04;;;0.71;100.00
76815;BME280;65768;49.906;19.384;2024-01-06T22:49:43;97547.25;;;0.81;100.00
76815;BME280;65768;49.906;19.384;2024-01-06T22:52:11;97546.01;;;0.85;100.00
76815;BME280;65768;49.906;19.384;2024-01-06T22:54:40;97541.98;;;0.64;100.00
76815;BME280;65768;49.906;19.384;2024-01-06T22:57:09;97548.26;;;0.74;100.00
76815;BME280;65768;49.906;19.384;2024-01-06T22:59:37;97545.36;;;0.56;100.00
76815;BME280;65768;49.906;19.384;2024-01-06T23:02:04;97553.84;;;0.77;100.00
76815;BME280;65768;49.906;19.384;2024-01-06T23:04:32;97552.71;;;0.79;100.00
76815;BME280;65768;49.906;19.384;2024-01-06T23:06:58;97550.21;;;0.70;100.00
76815;BME280;65768;49.906;19.384;2024-01-06T23:09:27;97552.35;;;0.73;100.00
76815;BME280;65768;49.906;19.384;2024-01-06T23:11:54;97553.87;;;0.72;100.00
76815;BME280;65768;49.906;19.384;2024-01-06T23:14:22;97555.13;;;0.80;100.00
76815;BME280;65768;49.906;19.384;2024-01-06T23:16:48;97555.27;;;0.79;100.00
76815;BME280;65768;49.906;19.384;2024-01-06T23:19:16;97556.23;;;0.70;100.00
76815;BME280;65768;49.906;19.384;2024-01-06T23:21:43;97557.91;;;0.76;100.00
76815;BME280;65768;49.906;19.384;2024-01-06T23:24:10;97556.52;;;0.63;100.00
76815;BME280;65768;49.906;19.384;2024-01-06T23:26:37;97561.30;;;0.56;100.00
76815;BME280;65768;49.906;19.384;2024-01-06T23:29:05;97554.25;;;0.55;100.00
76815;BME280;65768;49.906;19.384;2024-01-06T23:31:32;97559.59;;;0.56;100.00
76815;BME280;65768;49.906;19.384;2024-01-06T23:34:00;97559.30;;;0.46;100.00
76815;BME280;65768;49.906;19.384;2024-01-06T23:36:27;97557.80;;;0.48;100.00
76815;BME280;65768;49.906;19.384;2024-01-06T23:38:55;97562.60;;;0.59;100.00
76815;BME280;65768;49.906;19.384;2024-01-06T23:41:22;97566.91;;;0.42;100.00
76815;BME280;65768;49.906;19.384;2024-01-06T23:43:49;97567.44;;;0.43;100.00
76815;BME280;65768;49.906;19.384;2024-01-06T23:46:16;97567.34;;;0.34;100.00
76815;BME280;65768;49.906;19.384;2024-01-06T23:48:44;97578.36;;;0.24;100.00
76815;BME280;65768;49.906;19.384;2024-01-06T23:51:16;97572.13;;;0.33;100.00
76815;BME280;65768;49.906;19.384;2024-01-06T23:53:43;97568.08;;;0.35;100.00
76815;BME280;65768;49.906;19.384;2024-01-06T23:56:11;97571.02;;;0.37;100.00
76815;BME280;65768;49.906;19.384;2024-01-06T23:58:38;97573.98;;;0.32;100.00
